Time;durP1;ratioP1;P1;durP2;ratioP2;P2;SDS_P1;SDS_P2;PMS_P1;PMS_P2;Temp;Humidity;BMP_temperature;BMP_pressure;BME280_temperature;BME280_humidity;BME280_pressure;Samples;Min_cycle;Max_cycle;Signal;HPM_P1;HPM_P2
2020/12/09 00:00:11;;;;;;;43.03;21.25;;;1.50;99.90;;;;;;467291;253;27994;-75
2020/12/09 00:02:12;;;;;;;41.60;21.83;;;1.60;99.90;;;;;;467348;253;28117;-75
2020/12/09 00:04:13;;;;;;;38.28;20.88;;;1.60;99.90;;;;;;467359;253;27876;-75
2020/12/09 00:06:14;;;;;;;38.65;21.48;;;1.60;99.90;;;;;;467374;253;27552;-75
2020/12/09 00:08:16;;;;;;;38.25;20.73;;;1.60;99.90;;;;;;467333;253;27528;-75
2020/12/09 00:10:17;;;;;;;37.63;21.62;;;1.60;99.90;;;;;;467324;253;27558;-75
2020/12/09 00:12:18;;;;;;;38.47;20.42;;;1.60;99.90;;;;;;467356;254;27540;-75
2020/12/09 00:14:19;;;;;;;39.28;20.27;;;1.70;99.90;;;;;;467351;253;27639;-75
2020/12/09 00:16:21;;;;;;;40.12;22.95;;;1.60;99.90;;;;;;467459;253;28018;-75
2020/12/09 00:18:22;;;;;;;38.70;21.83;;;1.70;99.90;;;;;;467487;253;28126;-75
2020/12/09 00:20:23;;;;;;;51.53;27.30;;;1.70;99.90;;;;;;467396;253;28486;-75
2020/12/09 00:22:25;;;;;;;47.38;23.62;;;1.70;99.90;;;;;;467404;253;27556;-74
2020/12/09 00:24:26;;;;;;;52.28;28.20;;;1.60;99.90;;;;;;467394;254;27555;-75
2020/12/09 00:26:27;;;;;;;45.70;26.02;;;1.60;99.90;;;;;;467373;253;27547;-75
2020/12/09 00:28:28;;;;;;;45.65;25.30;;;1.60;99.90;;;;;;467379;253;27560;-75
2020/12/09 00:30:30;;;;;;;42.80;24.98;;;1.60;99.90;;;;;;467334;253;28833;-75
2020/12/09 00:32:31;;;;;;;43.83;23.75;;;1.50;99.90;;;;;;467400;253;28136;-75
2020/12/09 00:34:32;;;;;;;41.95;23.10;;;1.60;99.90;;;;;;467398;254;27492;-75
2020/12/09 00:36:33;;;;;;;37.72;21.15;;;1.60;99.90;;;;;;467374;253;27533;-75
2020/12/09 00:38:35;;;;;;;37.90;20.45;;;1.60;99.90;;;;;;467380;253;27553;-75
2020/12/09 00:40:36;;;;;;;39.50;20.88;;;1.40;99.90;;;;;;467379;253;27523;-75
2020/12/09 00:42:37;;;;;;;34.22;18.77;;;1.40;99.90;;;;;;467435;253;27632;-75
2020/12/09 00:44:38;;;;;;;42.83;21.42;;;1.40;99.90;;;;;;467490;253;27608;-75
2020/12/09 00:46:40;;;;;;;35.88;20.27;;;1.50;99.90;;;;;;467463;253;28087;-75
2020/12/09 00:48:41;;;;;;;33.85;18.50;;;1.50;99.90;;;;;;467392;254;28126;-77
2020/12/09 00:50:42;;;;;;;36.85;20.08;;;1.50;99.90;;;;;;467473;253;27499;-75
2020/12/09 00:52:43;;;;;;;33.63;19.67;;;1.60;99.90;;;;;;467362;253;27903;-75
2020/12/09 00:54:45;;;;;;;38.72;20.85;;;1.60;99.90;;;;;;467231;253;27528;-75
2020/12/09 00:56:46;;;;;;;33.15;19.17;;;1.60;99.90;;;;;;467307;253;27552;-75
2020/12/09 00:58:47;;;;;;;33.78;19.45;;;1.70;99.90;;;;;;467391;252;27647;-75
2020/12/09 01:00:48;;;;;;;35.60;19.75;;;1.70;99.90;;;;;;467451;253;27505;-74
2020/12/09 01:02:50;;;;;;;35.28;18.75;;;1.70;99.90;;;;;;467503;253;28028;-75
2020/12/09 01:04:51;;;;;;;37.83;20.60;;;1.70;99.90;;;;;;467475;253;28137;-75
2020/12/09 01:06:52;;;;;;;37.25;20.67;;;1.70;99.90;;;;;;467403;253;27577;-75
2020/12/09 01:08:53;;;;;;;34.05;19.65;;;1.70;99.90;;;;;;467438;253;27628;-75
2020/12/09 01:10:55;;;;;;;36.33;21.12;;;1.70;99.90;;;;;;467350;253;27512;-75
2020/12/09 01:12:56;;;;;;;34.03;20.00;;;1.70;99.90;;;;;;467422;253;27553;-75
2020/12/09 01:14:57;;;;;;;28.08;17.42;;;1.70;99.90;;;;;;467371;253;27551;-75
2020/12/09 01:17:00;;;;;;;34.05;19.27;;;1.70;99.90;;;;;;467368;253;28017;-75
2020/12/09 01:19:00;;;;;;;37.63;19.98;;;1.60;99.90;;;;;;467292;254;28083;-75
2020/12/09 01:21:01;;;;;;;37.30;19.87;;;1.60;99.90;;;;;;467297;253;27663;-75
2020/12/09 01:23:02;;;;;;;39.15;20.80;;;1.50;99.90;;;;;;467325;253;27661;-75
2020/12/09 01:25:03;;;;;;;35.22;19.55;;;1.50;99.90;;;;;;467364;253;27552;-75
2020/12/09 01:27:05;;;;;;;36.42;18.73;;;1.40;99.90;;;;;;467369;253;27549;-75
2020/12/09 01:29:06;;;;;;;35.78;19.55;;;1.40;99.90;;;;;;467361;254;27551;-74
2020/12/09 01:31:07;;;;;;;29.52;16.87;;;1.40;99.90;;;;;;467352;253;27575;-75
2020/12/09 01:33:09;;;;;;;30.67;17.50;;;1.50;99.90;;;;;;467387;253;28080;-76
2020/12/09 01:35:10;;;;;;;43.40;21.20;;;1.50;99.90;;;;;;467377;253;28042;-75
2020/12/09 01:37:12;;;;;;;36.88;19.98;;;1.40;99.90;;;;;;467372;253;27524;-75
2020/12/09 01:39:12;;;;;;;38.95;21.27;;;1.40;99.90;;;;;;467669;253;27495;-75
2020/12/09 01:41:14;;;;;;;43.65;22.10;;;1.40;99.90;;;;;;467678;253;27518;-75
2020/12/09 01:43:15;;;;;;;39.08;21.12;;;1.40;99.90;;;;;;467410;253;27940;-75
2020/12/09 01:45:16;;;;;;;39.50;20.60;;;1.40;99.90;;;;;;467386;253;27539;-75
2020/12/09 01:47:17;;;;;;;41.37;21.12;;;1.50;99.90;;;;;;467406;253;27545;-76
2020/12/09 01:49:19;;;;;;;39.35;20.20;;;1.50;99.90;;;;;;467220;253;28029;-75
2020/12/09 01:51:20;;;;;;;37.00;18.77;;;1.50;99.90;;;;;;467363;253;28010;-75
2020/12/09 01:53:21;;;;;;;42.53;22.05;;;1.40;99.90;;;;;;467439;254;27497;-75
2020/12/09 01:55:22;;;;;;;36.90;19.52;;;1.40;99.90;;;;;;467370;253;27552;-75
2020/12/09 01:57:24;;;;;;;39.17;21.08;;;1.40;99.90;;;;;;467406;253;27536;-76
2020/12/09 01:59:25;;;;;;;42.53;21.10;;;1.30;99.90;;;;;;467414;254;27595;-75
2020/12/09 02:01:26;;;;;;;43.60;21.37;;;1.40;99.90;;;;;;467419;253;27553;-74
2020/12/09 02:03:27;;;;;;;35.00;19.77;;;1.40;99.90;;;;;;467466;253;27978;-74
2020/12/09 02:05:29;;;;;;;36.40;19.37;;;1.40;99.90;;;;;;467456;253;28023;-75
2020/12/09 02:07:30;;;;;;;35.95;20.30;;;1.40;99.90;;;;;;467516;253;27645;-75
2020/12/09 02:09:31;;;;;;;34.00;19.30;;;1.50;99.90;;;;;;467529;254;27524;-75
2020/12/09 02:11:32;;;;;;;35.90;20.00;;;1.60;99.90;;;;;;467505;253;27585;-75
2020/12/09 02:13:34;;;;;;;34.83;20.25;;;1.60;99.90;;;;;;467544;254;27875;-74
2020/12/09 02:15:35;;;;;;;34.63;19.65;;;1.70;99.90;;;;;;467523;253;27586;-75
2020/12/09 02:17:36;;;;;;;36.03;19.67;;;1.70;99.90;;;;;;467548;253;27544;-75
2020/12/09 02:19:37;;;;;;;33.28;18.77;;;1.70;99.90;;;;;;467477;253;28051;-75
2020/12/09 02:21:39;;;;;;;33.20;18.52;;;1.70;99.90;;;;;;467107;251;28017;-75
2020/12/09 02:23:40;;;;;;;34.97;19.60;;;1.70;99.90;;;;;;467065;252;27544;-75
2020/12/09 02:25:41;;;;;;;35.75;19.00;;;1.70;99.90;;;;;;467462;253;27537;-74
2020/12/09 02:27:42;;;;;;;35.88;19.98;;;1.70;99.90;;;;;;467488;251;27673;-75
2020/12/09 02:29:44;;;;;;;34.50;20.75;;;1.70;99.90;;;;;;467445;253;27549;-75
2020/12/09 02:31:45;;;;;;;38.88;20.42;;;1.70;99.90;;;;;;467415;253;27592;-75
2020/12/09 02:33:46;;;;;;;35.15;19.48;;;1.70;99.90;;;;;;467063;253;27559;-76
2020/12/09 02:35:47;;;;;;;40.33;21.60;;;1.70;99.90;;;;;;467296;251;28119;-75
2020/12/09 02:37:49;;;;;;;34.22;19.33;;;1.70;99.90;;;;;;467337;254;28133;-75
2020/12/09 02:39:50;;;;;;;35.35;18.37;;;1.80;99.90;;;;;;467382;253;27513;-75
2020/12/09 02:41:51;;;;;;;31.83;19.12;;;1.80;99.90;;;;;;467247;253;27552;-74
2020/12/09 02:43:52;;;;;;;35.50;18.70;;;1.80;99.90;;;;;;467331;254;27615;-76
2020/12/09 02:45:54;;;;;;;34.05;19.80;;;1.70;99.90;;;;;;467338;253;27552;-76
2020/12/09 02:47:55;;;;;;;34.47;19.60;;;1.70;99.90;;;;;;467173;253;27643;-75
2020/12/09 02:49:56;;;;;;;33.65;19.55;;;1.70;99.90;;;;;;467315;254;28937;-75
2020/12/09 02:51:58;;;;;;;40.83;21.25;;;1.80;99.90;;;;;;467323;253;28008;-75
2020/12/09 02:53:59;;;;;;;37.40;19.67;;;1.80;99.90;;;;;;467331;253;28040;-75
2020/12/09 02:56:00;;;;;;;35.17;18.45;;;1.80;99.90;;;;;;467343;253;27541;-75
2020/12/09 02:58:01;;;;;;;35.22;19.37;;;1.80;99.90;;;;;;467338;253;27535;-75
2020/12/09 03:00:03;;;;;;;35.33;20.52;;;1.80;99.90;;;;;;467339;253;27913;-74
2020/12/09 03:02:04;;;;;;;42.88;23.05;;;1.90;99.90;;;;;;467350;254;27659;-74
2020/12/09 03:04:05;;;;;;;43.97;22.80;;;1.90;99.90;;;;;;467338;254;27571;-75
2020/12/09 03:06:06;;;;;;;38.85;21.67;;;2.00;99.90;;;;;;467186;254;28004;-75
2020/12/09 03:08:08;;;;;;;38.83;21.17;;;2.00;99.90;;;;;;467213;253;27994;-75
2020/12/09 03:10:09;;;;;;;40.85;21.33;;;2.00;99.90;;;;;;467164;253;27538;-75
2020/12/09 03:12:10;;;;;;;38.20;21.45;;;2.00;99.90;;;;;;467184;253;27706;-75
2020/12/09 03:14:11;;;;;;;37.15;20.08;;;2.10;99.90;;;;;;467279;254;27539;-75
2020/12/09 03:16:13;;;;;;;32.45;18.60;;;2.10;99.90;;;;;;467422;253;27565;-75
2020/12/09 03:18:14;;;;;;;36.75;19.85;;;2.10;99.90;;;;;;467472;253;27553;-75
2020/12/09 03:20:15;;;;;;;38.30;21.50;;;2.10;99.90;;;;;;467416;253;27548;-75
2020/12/09 03:22:16;;;;;;;39.90;22.75;;;2.10;99.90;;;;;;467433;253;28126;-75
2020/12/09 03:24:18;;;;;;;37.53;21.12;;;2.10;99.90;;;;;;467345;253;29163;-75
2020/12/09 03:26:19;;;;;;;38.88;21.75;;;2.20;99.90;;;;;;467388;253;27632;-75
2020/12/09 03:28:20;;;;;;;38.33;21.65;;;2.20;99.90;;;;;;467356;254;27501;-75
2020/12/09 03:30:21;;;;;;;37.72;19.92;;;2.20;99.90;;;;;;467332;254;27891;-75
2020/12/09 03:32:23;;;;;;;38.47;22.00;;;2.20;99.90;;;;;;467345;254;27965;-75
2020/12/09 03:34:30;;;;;;;43.47;22.75;;;2.20;99.90;;;;;;464465;253;28000;-75
2020/12/09 03:36:43;;;;;;;37.50;20.95;;;2.10;99.90;;;;;;448082;264;28196;-75
2020/12/09 03:38:50;;;;;;;41.58;21.92;;;2.20;99.90;;;;;;448126;263;28051;-75
2020/12/09 03:40:55;;;;;;;40.05;21.62;;;2.20;99.90;;;;;;449132;264;28243;-75
2020/12/09 03:42:56;;;;;;;38.22;22.10;;;2.20;99.90;;;;;;449315;264;27996;-75
2020/12/09 03:44:58;;;;;;;37.55;20.95;;;2.20;99.90;;;;;;448727;264;28198;-76
2020/12/09 03:46:59;;;;;;;34.95;19.65;;;2.20;99.90;;;;;;455472;254;28148;-74
2020/12/09 03:49:01;;;;;;;38.97;21.67;;;2.20;99.90;;;;;;466243;251;27986;-75
2020/12/09 03:51:02;;;;;;;37.65;20.77;;;2.20;99.90;;;;;;466668;254;28448;-75
2020/12/09 03:53:03;;;;;;;37.03;20.10;;;2.30;99.90;;;;;;466931;251;27892;-76
2020/12/09 03:55:17;;;;;;;40.63;21.30;;;2.30;99.90;;;;;;466369;253;27956;-75
2020/12/09 03:57:21;;;;;;;37.00;21.10;;;2.30;99.90;;;;;;465009;254;28972;-75
2020/12/09 03:59:25;;;;;;;38.53;20.65;;;2.20;99.90;;;;;;467416;253;28015;-75
2020/12/09 04:01:30;;;;;;;40.63;21.50;;;2.20;99.90;;;;;;466807;254;29308;-76
2020/12/09 04:03:31;;;;;;;34.65;20.20;;;2.20;99.90;;;;;;467387;253;28029;-75
2020/12/09 04:05:33;;;;;;;35.75;20.83;;;2.30;99.90;;;;;;464418;254;27998;-75
2020/12/09 04:07:37;;;;;;;36.33;20.45;;;2.30;99.90;;;;;;467038;253;28076;-75
2020/12/09 04:09:44;;;;;;;36.08;19.25;;;2.20;99.90;;;;;;462516;253;28166;-75
2020/12/09 04:11:49;;;;;;;35.25;20.33;;;2.20;99.90;;;;;;466412;254;28778;-75
2020/12/09 04:13:52;;;;;;;34.08;19.52;;;2.20;99.90;;;;;;467380;253;27526;-75
2020/12/09 04:15:53;;;;;;;35.88;20.73;;;2.20;99.90;;;;;;466400;254;27946;-75
2020/12/09 04:17:57;;;;;;;38.55;21.00;;;2.20;99.90;;;;;;465564;254;27925;-74
2020/12/09 04:19:59;;;;;;;39.40;21.58;;;2.30;99.90;;;;;;465072;253;27603;-76
2020/12/09 04:22:06;;;;;;;38.60;20.42;;;2.30;99.90;;;;;;466393;254;27970;-75
2020/12/09 04:24:10;;;;;;;33.47;19.65;;;2.30;99.90;;;;;;467676;254;27933;-75
2020/12/09 04:26:11;;;;;;;33.55;20.10;;;2.30;99.90;;;;;;466736;253;27569;-75
2020/12/09 04:28:15;;;;;;;36.05;19.62;;;2.40;99.90;;;;;;467461;253;28131;-75
2020/12/09 04:30:19;;;;;;;34.13;19.73;;;2.40;99.90;;;;;;465719;254;28008;-74
2020/12/09 04:32:21;;;;;;;35.03;20.05;;;2.40;99.90;;;;;;467396;253;27584;-75
2020/12/09 04:34:22;;;;;;;35.17;20.50;;;2.40;99.90;;;;;;467690;252;27501;-75
2020/12/09 04:36:23;;;;;;;33.30;19.70;;;2.40;99.90;;;;;;467622;253;27549;-75
2020/12/09 04:38:25;;;;;;;34.35;20.27;;;2.40;99.90;;;;;;467343;253;27951;-75
2020/12/09 04:40:26;;;;;;;30.70;19.00;;;2.40;99.90;;;;;;467326;253;28020;-75
2020/12/09 04:42:27;;;;;;;32.35;19.55;;;2.30;99.90;;;;;;467261;253;28204;-75
2020/12/09 04:44:28;;;;;;;33.13;18.60;;;2.30;99.90;;;;;;467340;253;27568;-75
2020/12/09 04:46:30;;;;;;;35.03;20.35;;;2.30;99.90;;;;;;467451;253;27640;-76
2020/12/09 04:48:31;;;;;;;33.92;19.42;;;2.30;99.90;;;;;;467344;254;27544;-75
2020/12/09 04:50:32;;;;;;;38.58;20.17;;;2.30;99.90;;;;;;467351;253;27549;-75
2020/12/09 04:52:33;;;;;;;38.95;21.27;;;2.30;99.90;;;;;;467432;253;27505;-75
2020/12/09 04:54:35;;;;;;;36.75;20.25;;;2.30;99.90;;;;;;467361;253;28088;-75
2020/12/09 04:56:36;;;;;;;33.97;20.10;;;2.30;99.90;;;;;;467394;253;27987;-75
2020/12/09 04:58:37;;;;;;;35.33;20.55;;;2.40;99.90;;;;;;467397;254;27528;-75
2020/12/09 05:00:38;;;;;;;35.97;19.80;;;2.40;99.90;;;;;;467350;253;27549;-75
2020/12/09 05:02:40;;;;;;;38.10;20.12;;;2.40;99.90;;;;;;467421;253;27641;-75
2020/12/09 05:04:41;;;;;;;33.58;20.12;;;2.40;99.90;;;;;;467405;253;27559;-75
2020/12/09 05:06:42;;;;;;;37.22;20.58;;;2.40;99.90;;;;;;467476;253;27569;-74
2020/12/09 05:08:43;;;;;;;34.25;18.92;;;2.30;99.90;;;;;;467507;253;27567;-76
2020/12/09 05:10:45;;;;;;;34.75;19.90;;;2.30;99.90;;;;;;467271;251;28054;-74
2020/12/09 05:12:46;;;;;;;35.08;19.02;;;2.30;99.90;;;;;;467536;253;28056;-75
2020/12/09 05:14:47;;;;;;;34.08;19.05;;;2.30;99.90;;;;;;467562;253;27515;-76
2020/12/09 05:16:48;;;;;;;33.95;19.15;;;2.30;99.90;;;;;;467582;253;27636;-76
2020/12/09 05:18:50;;;;;;;31.98;18.10;;;2.20;99.90;;;;;;467543;254;27497;-75
2020/12/09 05:20:51;;;;;;;33.65;19.37;;;2.30;99.90;;;;;;467446;254;27571;-75
2020/12/09 05:22:52;;;;;;;34.78;18.30;;;2.30;99.90;;;;;;467548;253;27617;-75
2020/12/09 05:24:53;;;;;;;40.00;18.55;;;2.30;99.90;;;;;;467052;252;27996;-75
2020/12/09 05:26:55;;;;;;;37.60;19.85;;;2.30;99.90;;;;;;467093;253;28040;-76
2020/12/09 05:28:56;;;;;;;34.88;19.70;;;2.20;99.90;;;;;;467458;253;27934;-75
2020/12/09 05:30:57;;;;;;;36.53;19.30;;;2.30;99.90;;;;;;467293;254;27532;-75
2020/12/09 05:32:59;;;;;;;32.63;19.50;;;2.30;99.90;;;;;;467492;253;27569;-75
2020/12/09 05:35:00;;;;;;;36.72;20.05;;;2.30;99.90;;;;;;467430;253;27572;-75
2020/12/09 05:37:01;;;;;;;33.85;18.50;;;2.40;99.90;;;;;;467400;253;27659;-76
2020/12/09 05:39:02;;;;;;;29.27;17.85;;;2.40;99.90;;;;;;467370;254;27570;-75
2020/12/09 05:41:04;;;;;;;34.17;18.77;;;2.40;99.90;;;;;;467314;254;28072;-75
2020/12/09 05:43:05;;;;;;;31.92;17.52;;;2.30;99.90;;;;;;467271;253;28114;-75
2020/12/09 05:45:06;;;;;;;33.20;18.27;;;2.30;99.90;;;;;;467424;253;27582;-76
2020/12/09 05:47:07;;;;;;;31.17;17.27;;;2.30;99.90;;;;;;467418;253;27628;-75
2020/12/09 05:49:09;;;;;;;32.67;18.48;;;2.30;99.90;;;;;;467328;253;27547;-76
2020/12/09 05:51:11;;;;;;;32.60;18.62;;;2.30;99.90;;;;;;467217;253;27537;-75
2020/12/09 05:53:11;;;;;;;31.65;17.62;;;2.30;99.90;;;;;;467398;253;27536;-76
2020/12/09 05:55:12;;;;;;;32.05;17.17;;;2.30;99.90;;;;;;467419;253;27520;-76
2020/12/09 05:57:14;;;;;;;31.98;18.70;;;2.30;99.90;;;;;;467440;254;28099;-76
2020/12/09 05:59:15;;;;;;;31.95;18.42;;;2.30;99.90;;;;;;467404;253;28002;-76
2020/12/09 06:01:16;;;;;;;31.50;19.35;;;2.30;99.90;;;;;;467277;253;27525;-75
2020/12/09 06:03:17;;;;;;;33.67;19.50;;;2.20;99.90;;;;;;467377;253;27535;-76
2020/12/09 06:05:19;;;;;;;35.67;19.50;;;2.30;99.90;;;;;;467382;254;27532;-76
2020/12/09 06:07:20;;;;;;;36.40;19.30;;;2.30;99.90;;;;;;467343;253;27549;-76
2020/12/09 06:09:21;;;;;;;32.55;18.20;;;2.30;99.90;;;;;;467371;252;27548;-76
2020/12/09 06:11:22;;;;;;;31.20;17.75;;;2.30;99.90;;;;;;466982;251;27572;-75
2020/12/09 06:13:24;;;;;;;32.20;18.25;;;2.30;99.90;;;;;;467217;253;28822;-75
2020/12/09 06:15:25;;;;;;;31.15;17.77;;;2.30;99.90;;;;;;467285;253;28101;-75
2020/12/09 06:17:26;;;;;;;33.75;18.62;;;2.30;99.90;;;;;;467272;253;27554;-76
2020/12/09 06:19:27;;;;;;;31.17;17.20;;;2.30;99.90;;;;;;467270;253;27567;-76
2020/12/09 06:21:29;;;;;;;34.30;19.20;;;2.30;99.90;;;;;;466913;253;27637;-76
2020/12/09 06:23:30;;;;;;;34.63;17.80;;;2.30;99.90;;;;;;467343;253;27500;-76
2020/12/09 06:25:31;;;;;;;34.05;18.77;;;2.30;99.90;;;;;;467082;251;27680;-76
2020/12/09 06:27:32;;;;;;;35.63;20.40;;;2.40;99.90;;;;;;467229;253;29224;-75
2020/12/09 06:29:34;;;;;;;32.80;17.67;;;2.40;99.90;;;;;;467343;253;28031;-75
2020/12/09 06:31:35;;;;;;;33.78;19.05;;;2.40;99.90;;;;;;467314;253;28095;-76
2020/12/09 06:33:36;;;;;;;34.35;18.92;;;2.50;99.90;;;;;;467399;253;27623;-75
2020/12/09 06:35:37;;;;;;;31.95;18.02;;;2.50;99.90;;;;;;467448;253;27541;-76
2020/12/09 06:37:39;;;;;;;28.52;17.10;;;2.50;99.90;;;;;;467450;253;27523;-75
2020/12/09 06:39:40;;;;;;;30.73;17.85;;;2.50;99.90;;;;;;467470;254;27632;-75
2020/12/09 06:41:41;;;;;;;36.92;19.85;;;2.50;99.90;;;;;;467378;254;27557;-77
2020/12/09 06:43:42;;;;;;;36.60;20.90;;;2.50;99.90;;;;;;467543;253;27932;-75
2020/12/09 06:45:44;;;;;;;34.20;19.92;;;2.50;99.90;;;;;;467528;253;28026;-75
2020/12/09 06:47:45;;;;;;;32.55;18.42;;;2.50;99.90;;;;;;467466;253;27547;-76
2020/12/09 06:49:46;;;;;;;30.70;18.30;;;2.50;99.90;;;;;;467037;251;27533;-75
2020/12/09 06:51:48;;;;;;;31.00;18.33;;;2.50;99.90;;;;;;466679;251;27560;-76
2020/12/09 06:53:49;;;;;;;30.90;17.60;;;2.60;99.90;;;;;;466267;254;27571;-75
2020/12/09 06:55:51;;;;;;;34.13;18.62;;;2.50;99.90;;;;;;467286;254;27580;-76
2020/12/09 06:57:51;;;;;;;30.92;17.92;;;2.50;99.90;;;;;;467157;252;27587;-75
2020/12/09 06:59:53;;;;;;;32.95;19.10;;;2.50;99.90;;;;;;467268;253;28941;-75
2020/12/09 07:01:54;;;;;;;31.23;18.73;;;2.50;99.90;;;;;;467303;253;28110;-76
2020/12/09 07:03:55;;;;;;;34.35;17.65;;;2.50;99.90;;;;;;467363;253;27552;-75
2020/12/09 07:05:56;;;;;;;33.53;18.02;;;2.60;99.90;;;;;;467339;253;27565;-75
2020/12/09 07:07:58;;;;;;;28.62;16.40;;;2.60;99.90;;;;;;467357;253;27532;-76
2020/12/09 07:09:59;;;;;;;31.08;17.00;;;2.50;99.90;;;;;;467327;254;27537;-76
2020/12/09 07:12:00;;;;;;;30.08;18.17;;;2.50;99.90;;;;;;467298;254;27555;-76
2020/12/09 07:14:05;;;;;;;31.95;17.95;;;2.50;99.90;;;;;;467361;253;27964;-75
2020/12/09 07:16:03;;;;;;;31.25;17.70;;;2.40;99.90;;;;;;467357;253;28118;-77
2020/12/09 07:18:04;;;;;;;30.05;17.92;;;2.40;99.90;;;;;;467375;253;27578;-76
2020/12/09 07:20:05;;;;;;;31.90;17.75;;;2.40;99.90;;;;;;467260;254;27556;-75
2020/12/09 07:22:06;;;;;;;28.17;16.80;;;2.50;99.90;;;;;;467275;253;27532;-76
2020/12/09 07:24:08;;;;;;;31.75;17.98;;;2.50;99.90;;;;;;467388;253;27600;-75
2020/12/09 07:26:09;;;;;;;33.60;19.00;;;2.60;99.90;;;;;;467333;252;27518;-76
2020/12/09 07:28:10;;;;;;;39.53;21.50;;;2.60;99.90;;;;;;467378;253;27536;-75
2020/12/09 07:30:12;;;;;;;45.42;25.20;;;2.70;99.90;;;;;;467194;253;27989;-75
2020/12/09 07:32:13;;;;;;;36.45;20.15;;;2.70;99.90;;;;;;467340;253;28806;-75
2020/12/09 07:34:14;;;;;;;39.63;21.33;;;2.70;99.90;;;;;;467371;253;27629;-75
2020/12/09 07:36:15;;;;;;;32.50;18.52;;;2.70;99.90;;;;;;467358;253;27652;-76
2020/12/09 07:38:16;;;;;;;33.28;19.00;;;2.70;99.90;;;;;;467360;253;27522;-75
2020/12/09 07:40:21;;;;;;;33.97;18.48;;;2.70;99.90;;;;;;467275;253;27545;-76
2020/12/09 07:42:20;;;;;;;29.60;17.65;;;2.70;99.90;;;;;;467358;253;27614;-74
2020/12/09 07:44:20;;;;;;;30.92;17.90;;;2.60;99.90;;;;;;467353;253;27541;-77
2020/12/09 07:46:21;;;;;;;29.42;17.73;;;2.70;99.90;;;;;;467377;253;28024;-77
2020/12/09 07:48:23;;;;;;;31.75;18.87;;;2.70;99.90;;;;;;467318;253;28034;-75
2020/12/09 07:50:24;;;;;;;30.12;18.58;;;2.70;99.90;;;;;;467417;254;27541;-76
2020/12/09 07:52:25;;;;;;;34.72;20.25;;;2.70;99.90;;;;;;467501;253;27531;-75
2020/12/09 07:54:26;;;;;;;28.17;16.70;;;2.70;99.90;;;;;;467407;254;27538;-76
2020/12/09 07:56:28;;;;;;;32.03;19.58;;;2.70;99.90;;;;;;467387;253;27658;-75
2020/12/09 07:58:29;;;;;;;31.10;19.00;;;2.70;99.90;;;;;;467330;253;27615;-75
2020/12/09 08:00:30;;;;;;;29.95;17.98;;;2.80;99.90;;;;;;467293;253;28221;-76
2020/12/09 08:02:31;;;;;;;33.00;17.90;;;2.80;99.90;;;;;;467418;253;29030;-76
2020/12/09 08:04:33;;;;;;;31.12;17.15;;;2.80;99.90;;;;;;467334;253;27541;-75
2020/12/09 08:06:34;;;;;;;31.02;17.85;;;2.70;99.90;;;;;;467283;253;27550;-76
2020/12/09 08:08:35;;;;;;;33.70;18.60;;;2.60;99.90;;;;;;467247;253;27627;-76
2020/12/09 08:10:37;;;;;;;29.87;17.92;;;2.60;99.90;;;;;;467270;253;27556;-76
2020/12/09 08:12:38;;;;;;;31.77;18.52;;;2.70;99.90;;;;;;467295;253;27549;-76
2020/12/09 08:14:39;;;;;;;28.73;17.37;;;2.60;99.90;;;;;;467076;253;27668;-75
2020/12/09 08:16:40;;;;;;;31.05;17.52;;;2.70;99.90;;;;;;467252;253;28099;-78
2020/12/09 08:18:42;;;;;;;29.95;16.55;;;2.70;99.90;;;;;;467409;253;28047;-75
2020/12/09 08:20:43;;;;;;;33.40;18.85;;;2.80;99.90;;;;;;467370;253;27641;-75
2020/12/09 08:22:44;;;;;;;33.30;18.75;;;2.80;99.90;;;;;;467407;253;27501;-75
2020/12/09 08:24:45;;;;;;;32.28;18.27;;;2.70;99.90;;;;;;467398;253;27586;-76
2020/12/09 08:26:47;;;;;;;30.12;18.60;;;2.80;99.90;;;;;;467390;253;27564;-76
2020/12/09 08:28:48;;;;;;;29.05;17.75;;;2.80;99.90;;;;;;467328;253;27648;-76
2020/12/09 08:30:49;;;;;;;34.83;18.50;;;2.90;99.90;;;;;;466963;252;27632;-75
2020/12/09 08:32:50;;;;;;;30.77;17.98;;;2.90;99.90;;;;;;466687;252;28864;-76
2020/12/09 08:34:52;;;;;;;31.42;19.00;;;3.00;99.90;;;;;;466909;251;27960;-76
2020/12/09 08:36:53;;;;;;;34.25;19.87;;;3.00;99.90;;;;;;467205;251;27539;-76
2020/12/09 08:38:54;;;;;;;29.67;19.05;;;2.80;99.90;;;;;;467552;253;27505;-76
2020/12/09 08:40:55;;;;;;;36.13;20.50;;;2.80;99.90;;;;;;467383;254;27612;-76
2020/12/09 08:43:00;;;;;;;33.20;19.40;;;2.80;99.90;;;;;;467545;253;27539;-76
2020/12/09 08:44:58;;;;;;;38.47;20.85;;;2.80;99.90;;;;;;467612;252;27515;-76
2020/12/09 08:46:59;;;;;;;35.90;20.55;;;2.80;99.90;;;;;;467426;253;28056;-76
2020/12/09 08:49:00;;;;;;;34.88;17.73;;;2.90;99.90;;;;;;467267;253;27957;-76
2020/12/09 08:51:02;;;;;;;32.08;19.27;;;2.90;99.90;;;;;;467340;253;27640;-76
2020/12/09 08:53:03;;;;;;;29.87;18.50;;;3.00;99.90;;;;;;467384;254;27663;-76
2020/12/09 08:55:04;;;;;;;36.95;21.50;;;3.10;99.90;;;;;;467382;253;27552;-76
2020/12/09 08:57:05;;;;;;;34.55;18.80;;;2.90;99.90;;;;;;467392;254;27889;-77
2020/12/09 08:59:07;;;;;;;35.80;19.90;;;2.90;99.90;;;;;;467408;254;27612;-75
2020/12/09 09:01:08;;;;;;;34.45;20.12;;;2.80;99.90;;;;;;467320;253;27535;-75
2020/12/09 09:03:13;;;;;;;35.38;19.67;;;2.80;99.90;;;;;;467365;253;28074;-75
2020/12/09 09:05:10;;;;;;;37.15;19.40;;;2.80;99.90;;;;;;467388;252;28012;-76
2020/12/09 09:07:12;;;;;;;38.03;21.30;;;2.80;99.90;;;;;;467353;254;27578;-77
2020/12/09 09:09:13;;;;;;;42.83;21.95;;;2.80;99.90;;;;;;467390;253;27578;-76
2020/12/09 09:11:14;;;;;;;32.15;18.90;;;2.90;99.90;;;;;;467302;253;27616;-76
2020/12/09 09:13:15;;;;;;;39.90;21.98;;;2.90;99.90;;;;;;467329;253;27563;-76
2020/12/09 09:15:17;;;;;;;38.17;20.12;;;3.00;99.90;;;;;;466996;253;27585;-76
2020/12/09 09:17:18;;;;;;;37.60;21.33;;;3.10;99.90;;;;;;466896;253;27583;-75
2020/12/09 09:19:19;;;;;;;31.50;19.45;;;3.10;99.90;;;;;;467362;254;28028;-76
2020/12/09 09:21:20;;;;;;;34.90;19.75;;;3.20;99.90;;;;;;467310;253;28026;-75
2020/12/09 09:23:22;;;;;;;31.25;18.27;;;3.10;99.90;;;;;;467356;254;27545;-76
2020/12/09 09:25:23;;;;;;;37.33;19.83;;;3.20;99.90;;;;;;467366;253;27757;-75
2020/12/09 09:27:24;;;;;;;33.95;20.25;;;3.20;99.90;;;;;;467327;254;27547;-76
2020/12/09 09:29:26;;;;;;;35.55;20.45;;;3.20;99.90;;;;;;467392;253;27561;-74
2020/12/09 09:31:27;;;;;;;36.13;21.05;;;3.30;99.90;;;;;;467434;253;27645;-76
2020/12/09 09:33:28;;;;;;;34.63;19.45;;;3.30;99.90;;;;;;467295;253;28048;-75
2020/12/09 09:35:29;;;;;;;35.00;19.70;;;3.30;99.90;;;;;;467233;253;28127;-76
2020/12/09 09:37:31;;;;;;;32.08;19.80;;;3.30;99.90;;;;;;467135;253;28782;-76
2020/12/09 09:39:32;;;;;;;35.72;20.95;;;3.30;99.90;;;;;;467354;253;27545;-75
2020/12/09 09:41:35;;;;;;;36.00;20.35;;;3.30;99.90;;;;;;467314;253;27539;-75
2020/12/09 09:43:34;;;;;;;34.08;19.95;;;3.30;99.90;;;;;;467362;253;27529;-76
2020/12/09 09:45:36;;;;;;;35.03;19.55;;;3.30;99.90;;;;;;467399;253;27554;-76
2020/12/09 09:47:37;;;;;;;36.45;19.17;;;3.30;99.90;;;;;;467256;254;27528;-75
2020/12/09 09:49:38;;;;;;;36.55;19.08;;;3.30;99.90;;;;;;467388;251;28111;-75
2020/12/09 09:51:39;;;;;;;37.17;19.73;;;3.30;99.90;;;;;;467336;253;29943;-77
2020/12/09 09:53:41;;;;;;;37.78;20.27;;;3.30;99.90;;;;;;467438;254;27581;-76
2020/12/09 09:55:42;;;;;;;37.88;20.50;;;3.30;99.90;;;;;;467503;253;27626;-75
2020/12/09 09:57:43;;;;;;;38.63;20.20;;;3.30;99.90;;;;;;467538;253;27498;-76
2020/12/09 09:59:44;;;;;;;37.20;21.15;;;3.40;99.90;;;;;;467512;253;27644;-76
2020/12/09 10:01:46;;;;;;;33.95;18.80;;;3.30;99.90;;;;;;467348;253;27912;-76
2020/12/09 10:03:47;;;;;;;35.65;18.85;;;3.30;99.90;;;;;;467431;253;27521;-76
2020/12/09 10:05:48;;;;;;;36.53;19.95;;;3.20;99.90;;;;;;467267;253;28130;-76
2020/12/09 10:07:49;;;;;;;32.97;18.30;;;3.20;99.90;;;;;;467350;253;27965;-76
2020/12/09 10:09:51;;;;;;;29.92;18.10;;;3.30;99.90;;;;;;466945;253;27566;-76
2020/12/09 10:11:52;;;;;;;29.80;16.67;;;3.30;99.90;;;;;;467396;253;27555;-77
2020/12/09 10:13:53;;;;;;;30.60;17.67;;;3.30;99.90;;;;;;467432;253;27518;-75
2020/12/09 10:15:55;;;;;;;31.55;17.80;;;3.30;99.90;;;;;;467393;253;27548;-75
2020/12/09 10:17:56;;;;;;;28.25;16.33;;;3.30;99.90;;;;;;467367;253;27541;-75
2020/12/09 10:19:58;;;;;;;33.97;18.48;;;3.30;99.90;;;;;;467339;253;28118;-76
2020/12/09 10:21:58;;;;;;;27.35;16.17;;;3.40;99.90;;;;;;467311;253;28087;-76